Time;durP1;ratioP1;P1;durP2;ratioP2;P2;SDS_P1;SDS_P2;PMS_P1;PMS_P2;Temp;Humidity;BMP_temperature;BMP_pressure;BME280_temperature;BME280_humidity;BME280_pressure;Samples;Min_cycle;Max_cycle;Signal;HPM_P1;HPM_P2
2023/08/19 00:00:23;;;;;;;9.47;8.20;;;21.60;99.90;;;;;;4960691;29;20454;-61
2023/08/19 00:02:50;;;;;;;9.53;8.63;;;21.50;99.90;;;;;;4961476;29;20469;-61
2023/08/19 00:05:18;;;;;;;14.50;9.30;;;21.40;99.90;;;;;;4968989;28;20524;-61
2023/08/19 00:07:46;;;;;;;16.30;8.70;;;21.40;1.00;;;;;;4979719;28;20470;-61
2023/08/19 00:10:13;;;;;;;9.47;7.80;;;21.30;99.90;;;;;;4980066;28;20538;-61
2023/08/19 00:12:40;;;;;;;10.00;7.47;;;21.30;99.90;;;;;;4968151;28;20458;-61
2023/08/19 00:15:08;;;;;;;10.67;8.23;;;21.20;99.90;;;;;;4962260;28;20437;-60
2023/08/19 00:17:37;;;;;;;8.50;7.60;;;21.10;1.00;;;;;;4979060;28;20466;-61
2023/08/19 00:20:06;;;;;;;11.00;8.30;;;21.10;99.90;;;;;;4979752;28;20754;-61
2023/08/19 00:22:33;;;;;;;8.90;7.97;;;21.10;1.00;;;;;;4979861;28;20504;-62
2023/08/19 00:25:00;;;;;;;9.63;8.73;;;21.10;1.00;;;;;;4979598;28;20472;-61
2023/08/19 00:27:27;;;;;;;9.50;8.57;;;21.10;1.00;;;;;;4977522;28;20766;-61
2023/08/19 00:29:55;;;;;;;11.90;8.90;;;21.20;1.00;;;;;;4979712;28;20843;-61
2023/08/19 00:32:22;;;;;;;9.10;8.30;;;21.20;1.00;;;;;;4976108;28;20498;-61
2023/08/19 00:34:51;;;;;;;10.23;7.70;;;21.20;1.00;;;;;;4959307;28;20470;-61
2023/08/19 00:37:19;;;;;;;13.93;7.90;;;21.10;1.00;;;;;;4969963;28;20467;-61
2023/08/19 00:39:46;;;;;;;10.40;7.97;;;21.10;1.00;;;;;;4977307;28;20474;-61
2023/08/19 00:42:13;;;;;;;9.70;8.53;;;21.00;35.80;;;;;;4978846;28;20458;-62
2023/08/19 00:44:40;;;;;;;9.40;8.13;;;21.00;1.00;;;;;;4978102;28;20461;-61
2023/08/19 00:47:07;;;;;;;9.30;7.33;;;21.10;1.00;;;;;;4970115;28;20492;-61
2023/08/19 00:49:35;;;;;;;10.40;7.90;;;21.10;1.00;;;;;;4969050;28;20476;-61
2023/08/19 00:52:04;;;;;;;10.43;7.97;;;21.00;1.00;;;;;;4978705;28;20591;-62
2023/08/19 00:54:31;;;;;;;8.07;7.27;;;21.10;1.00;;;;;;4978997;28;20480;-61
2023/08/19 00:56:59;;;;;;;7.90;7.20;;;21.10;1.00;;;;;;4970955;28;20463;-60
2023/08/19 00:59:27;;;;;;;9.70;8.37;;;21.10;1.00;;;;;;4978664;28;20474;-62
2023/08/19 01:01:55;;;;;;;9.43;7.63;;;21.10;99.90;;;;;;4977953;28;20844;-62
2023/08/19 01:04:23;;;;;;;6.93;6.27;;;21.10;1.00;;;;;;4979202;28;20468;-62
2023/08/19 01:06:59;;;;;;;8.13;7.30;;;21.10;1.00;;;;;;4978134;28;20928;-62
2023/08/19 01:09:38;;;;;;;10.87;7.67;;;21.20;1.00;;;;;;4979151;28;20973;-62
2023/08/19 01:12:14;;;;;;;9.37;6.80;;;21.30;99.90;;;;;;4976725;28;20939;-62
2023/08/19 01:14:51;;;;;;;8.00;6.97;;;21.30;99.90;;;;;;4959845;28;20470;-62
2023/08/19 01:17:21;;;;;;;7.80;7.10;;;21.30;99.90;;;;;;4959539;28;20471;-62
2023/08/19 01:19:50;;;;;;;8.00;7.20;;;21.30;1.00;;;;;;4959583;28;20510;-62
2023/08/19 01:22:28;;;;;;;7.83;7.13;;;21.30;99.90;;;;;;4959756;28;20465;-62
2023/08/19 01:24:57;;;;;;;9.00;6.20;;;21.30;99.90;;;;;;4959470;29;20469;-61
2023/08/19 01:27:25;;;;;;;8.10;7.27;;;21.30;71.70;;;;;;4959457;29;20463;-62
2023/08/19 01:29:55;;;;;;;10.37;7.30;;;21.30;33.00;;;;;;4959374;28;20474;-62
2023/08/19 01:32:24;;;;;;;7.57;6.87;;;21.40;1.00;;;;;;4958922;28;20795;-62
2023/08/19 01:34:52;;;;;;;9.83;6.70;;;21.50;1.00;;;;;;4959408;29;20915;-62
2023/08/19 01:37:28;;;;;;;10.17;7.23;;;21.50;1.00;;;;;;4959337;29;20752;-62
2023/08/19 01:39:57;;;;;;;10.87;5.90;;;21.50;37.60;;;;;;4958710;29;20823;-60
2023/08/19 01:42:25;;;;;;;8.23;6.07;;;21.50;46.30;;;;;;4972446;28;20462;-61
2023/08/19 01:44:54;;;;;;;7.37;6.60;;;21.40;38.90;;;;;;4978319;28;20462;-62
2023/08/19 01:47:22;;;;;;;9.20;6.27;;;21.30;94.10;;;;;;4977552;28;20466;-62
2023/08/19 01:49:49;;;;;;;7.33;6.63;;;21.30;99.90;;;;;;4977999;28;20907;-61
2023/08/19 01:52:18;;;;;;;6.57;5.93;;;21.20;99.90;;;;;;4968984;28;20501;-62
2023/08/19 01:54:45;;;;;;;8.40;6.37;;;21.10;99.90;;;;;;4973507;28;20462;-61
2023/08/19 01:57:13;;;;;;;9.47;7.00;;;21.00;99.90;;;;;;4978276;28;20461;-61
2023/08/19 01:59:40;;;;;;;7.47;6.37;;;21.10;1.00;;;;;;4969579;28;20485;-61
2023/08/19 02:02:08;;;;;;;7.17;6.20;;;21.10;31.70;;;;;;4958650;29;20809;-61
2023/08/19 02:04:35;;;;;;;11.37;5.97;;;21.10;1.00;;;;;;4958397;28;20463;-61
2023/08/19 02:07:02;;;;;;;8.53;6.23;;;21.10;1.00;;;;;;4959671;28;20473;-61
2023/08/19 02:09:30;;;;;;;6.90;5.90;;;21.20;1.00;;;;;;4958947;29;20467;-62
2023/08/19 02:11:57;;;;;;;10.30;6.70;;;21.20;99.90;;;;;;4958619;29;20553;-62
2023/08/19 02:14:26;;;;;;;8.57;6.20;;;21.20;1.00;;;;;;4958940;28;20466;-62
2023/08/19 02:16:53;;;;;;;8.53;6.30;;;21.30;26.60;;;;;;4959204;28;20473;-62
2023/08/19 02:19:20;;;;;;;8.43;6.67;;;21.30;99.90;;;;;;4963484;28;20927;-62
2023/08/19 02:21:47;;;;;;;7.50;6.23;;;21.30;99.90;;;;;;4962746;29;20454;-62
2023/08/19 02:24:14;;;;;;;6.97;5.70;;;21.30;99.90;;;;;;4965658;28;20466;-62
2023/08/19 02:26:41;;;;;;;8.50;5.87;;;21.30;1.00;;;;;;4962496;29;20466;-61
2023/08/19 02:29:08;;;;;;;6.77;5.70;;;21.40;1.00;;;;;;4967061;28;20476;-62
2023/08/19 02:31:37;;;;;;;8.70;5.90;;;21.30;1.00;;;;;;4972084;28;20501;-62
2023/08/19 02:34:05;;;;;;;7.60;6.30;;;21.40;1.00;;;;;;4962094;29;20468;-62
2023/08/19 02:36:32;;;;;;;7.50;6.60;;;21.40;1.00;;;;;;4962168;29;20504;-62
2023/08/19 02:38:59;;;;;;;11.30;6.40;;;21.40;1.00;;;;;;4963025;28;20470;-62
2023/08/19 02:41:26;;;;;;;8.87;5.70;;;21.30;1.00;;;;;;4981850;28;20776;-61
2023/08/19 02:43:54;;;;;;;7.80;5.80;;;21.40;1.00;;;;;;4981817;28;20466;-62
2023/08/19 02:46:21;;;;;;;6.60;5.90;;;21.40;1.00;;;;;;4980820;28;20466;-62
2023/08/19 02:48:49;;;;;;;5.80;5.30;;;21.40;99.90;;;;;;4981616;28;20748;-62
2023/08/19 02:51:17;;;;;;;6.50;5.77;;;21.50;99.90;;;;;;4980832;28;20588;-62
2023/08/19 02:53:44;;;;;;;6.37;5.10;;;21.50;99.90;;;;;;4970479;28;20525;-62
2023/08/19 02:56:11;;;;;;;6.30;5.13;;;21.60;99.90;;;;;;4962115;28;20472;-62
2023/08/19 02:58:38;;;;;;;8.40;5.80;;;21.60;99.90;;;;;;4961980;29;20462;-62
2023/08/19 03:01:05;;;;;;;9.17;5.97;;;21.60;99.90;;;;;;4970704;28;20895;-62
2023/08/19 03:03:32;;;;;;;7.37;5.80;;;21.70;99.90;;;;;;4981430;28;20472;-62
2023/08/19 03:06:03;;;;;;;6.10;5.50;;;21.70;99.90;;;;;;4981213;28;20453;-61
2023/08/19 03:08:30;;;;;;;7.40;5.73;;;21.70;99.90;;;;;;4981151;28;20472;-62
2023/08/19 03:10:57;;;;;;;8.07;5.70;;;21.60;99.90;;;;;;4980707;28;20756;-62
2023/08/19 03:13:25;;;;;;;7.80;5.07;;;21.60;99.90;;;;;;4981338;28;20584;-62
2023/08/19 03:15:52;;;;;;;7.00;5.67;;;21.60;99.90;;;;;;4962523;28;20554;-62
2023/08/19 03:18:20;;;;;;;11.07;6.00;;;21.60;99.90;;;;;;4961389;29;20458;-62
2023/08/19 03:20:56;;;;;;;5.33;4.90;;;21.60;99.90;;;;;;4962003;28;20467;-61
2023/08/19 03:23:25;;;;;;;6.93;4.80;;;21.60;99.90;;;;;;4978341;28;20736;-62
2023/08/19 03:25:53;;;;;;;5.40;4.90;;;21.70;99.90;;;;;;4981174;28;20458;-62
2023/08/19 03:28:20;;;;;;;7.03;5.23;;;21.70;99.90;;;;;;4980184;28;20472;-62
2023/08/19 03:30:47;;;;;;;9.00;4.97;;;21.80;99.90;;;;;;4980650;28;20462;-62
2023/08/19 03:33:15;;;;;;;6.13;5.27;;;21.80;99.90;;;;;;4966896;28;20842;-62
2023/08/19 03:35:42;;;;;;;8.40;5.00;;;21.80;99.90;;;;;;4961564;29;20877;-62
2023/08/19 03:38:09;;;;;;;6.53;5.07;;;21.80;99.90;;;;;;4961048;28;20900;-62
2023/08/19 03:40:38;;;;;;;5.87;4.77;;;21.80;99.90;;;;;;4961080;29;20462;-62
2023/08/19 03:43:05;;;;;;;6.47;5.03;;;21.90;99.90;;;;;;4962239;28;20753;-62
2023/08/19 03:45:34;;;;;;;6.70;5.03;;;21.90;99.90;;;;;;4961676;29;20485;-62
2023/08/19 03:48:01;;;;;;;6.00;4.90;;;21.90;99.90;;;;;;4960555;28;20473;-62
2023/08/19 03:50:28;;;;;;;5.97;4.93;;;22.00;99.90;;;;;;4961025;29;20473;-62
2023/08/19 03:52:56;;;;;;;7.07;5.10;;;22.00;99.90;;;;;;4960260;29;20498;-62
2023/08/19 03:55:23;;;;;;;6.70;5.07;;;22.10;99.90;;;;;;4961176;29;20499;-62
2023/08/19 03:57:52;;;;;;;6.57;5.30;;;22.10;99.90;;;;;;4967290;28;20465;-61
2023/08/19 04:00:19;;;;;;;7.70;4.50;;;22.00;99.90;;;;;;4980148;28;20466;-62
2023/08/19 04:02:46;;;;;;;6.50;5.40;;;22.00;99.90;;;;;;4980040;28;20454;-61
2023/08/19 04:05:13;;;;;;;5.57;5.00;;;22.00;99.90;;;;;;4980240;28;20468;-61
2023/08/19 04:07:41;;;;;;;7.80;4.67;;;22.00;99.90;;;;;;4978070;28;20466;-62
2023/08/19 04:10:09;;;;;;;6.63;5.13;;;22.00;99.90;;;;;;4960592;28;20472;-62
2023/08/19 04:12:37;;;;;;;7.43;5.63;;;22.00;99.90;;;;;;4959872;28;20517;-61
2023/08/19 04:15:08;;;;;;;5.10;4.57;;;21.90;99.90;;;;;;4963594;28;20470;-61
2023/08/19 04:17:36;;;;;;;8.73;4.77;;;21.90;99.90;;;;;;4959926;28;20469;-61
2023/08/19 04:20:07;;;;;;;6.07;4.93;;;21.90;99.90;;;;;;4960198;28;20763;-62
2023/08/19 04:22:35;;;;;;;5.27;4.73;;;22.00;99.90;;;;;;4960163;29;20465;-62
2023/08/19 04:25:02;;;;;;;9.80;5.30;;;22.00;99.90;;;;;;4960574;29;20462;-62
2023/08/19 04:27:31;;;;;;;6.63;4.40;;;22.00;99.90;;;;;;4960001;28;20466;-61
2023/08/19 04:29:58;;;;;;;7.10;5.00;;;22.00;99.90;;;;;;4960515;29;20498;-62
2023/08/19 04:32:27;;;;;;;5.23;4.43;;;22.00;99.90;;;;;;4973919;28;20544;-62
2023/08/19 04:34:54;;;;;;;6.13;5.50;;;22.00;99.90;;;;;;4979168;28;20480;-62
2023/08/19 04:37:21;;;;;;;8.97;4.33;;;22.00;99.90;;;;;;4979791;28;20462;-62
2023/08/19 04:39:48;;;;;;;6.03;5.10;;;22.00;99.90;;;;;;4978647;28;20458;-62
2023/08/19 04:42:15;;;;;;;6.80;4.53;;;22.00;99.90;;;;;;4976610;28;20462;-62
2023/08/19 04:44:42;;;;;;;5.70;4.40;;;22.10;99.90;;;;;;4979215;28;20440;-62
2023/08/19 04:47:10;;;;;;;6.00;5.37;;;22.10;99.90;;;;;;4977996;28;20470;-62
2023/08/19 04:49:39;;;;;;;6.07;5.47;;;22.10;99.90;;;;;;4979376;28;20525;-62
2023/08/19 04:52:06;;;;;;;5.07;4.10;;;22.10;99.90;;;;;;4977031;28;22070;-62
2023/08/19 04:54:33;;;;;;;6.40;5.80;;;22.10;99.90;;;;;;4962298;28;20463;-62
2023/08/19 04:57:01;;;;;;;5.73;5.10;;;22.00;99.90;;;;;;4960074;29;20470;-62
2023/08/19 04:59:28;;;;;;;6.33;5.03;;;22.00;99.90;;;;;;4959795;29;20498;-62
2023/08/19 05:02:02;;;;;;;9.00;5.00;;;22.00;99.90;;;;;;5094262;27;21061;-60
2023/08/19 05:04:29;;;;;;;4.90;4.27;;;22.00;99.90;;;;;;5094341;28;20794;-60
2023/08/19 05:06:57;;;;;;;7.07;4.13;;;22.10;99.90;;;;;;5094310;28;20484;-60
2023/08/19 05:09:24;;;;;;;5.80;4.70;;;22.10;99.90;;;;;;5094741;28;20460;-60
2023/08/19 05:11:51;;;;;;;9.33;5.60;;;22.10;99.90;;;;;;5094982;28;20453;-60
2023/08/19 05:14:18;;;;;;;7.43;5.53;;;22.30;99.90;;;;;;5093824;28;20459;-60
2023/08/19 05:16:46;;;;;;;5.07;4.30;;;22.40;99.90;;;;;;5094554;28;20570;-60
2023/08/19 05:19:18;;;;;;;4.90;4.00;;;22.50;99.90;;;;;;5093929;28;20461;-60
2023/08/19 05:21:46;;;;;;;5.13;4.20;;;22.60;99.90;;;;;;5094315;28;20769;-60
2023/08/19 05:24:14;;;;;;;5.10;4.30;;;22.70;99.90;;;;;;5093776;28;20496;-60
2023/08/19 05:26:41;;;;;;;4.90;4.47;;;22.80;99.90;;;;;;5094103;28;20460;-60
2023/08/19 05:29:09;;;;;;;4.53;4.10;;;22.80;99.90;;;;;;5093525;28;20448;-57
2023/08/19 05:31:36;;;;;;;7.20;3.43;;;22.90;99.90;;;;;;5092682;28;20478;-59
2023/08/19 05:34:03;;;;;;;6.23;4.33;;;23.00;99.90;;;;;;5092495;28;20916;-59
2023/08/19 05:36:32;;;;;;;4.83;4.40;;;23.00;1.00;;;;;;5091690;28;20778;-59
2023/08/19 05:38:59;;;;;;;7.93;3.80;;;23.10;99.90;;;;;;5090855;28;20464;-59
2023/08/19 05:41:26;;;;;;;5.67;4.63;;;23.20;99.90;;;;;;5092110;28;20932;-59
2023/08/19 05:43:53;;;;;;;5.27;4.77;;;23.20;1.00;;;;;;5071991;28;20461;-58
2023/08/19 05:46:20;;;;;;;6.67;5.47;;;23.30;1.00;;;;;;5072325;28;20708;-60
2023/08/19 05:48:47;;;;;;;4.70;4.17;;;23.40;99.90;;;;;;5081784;28;20435;-61
2023/08/19 05:51:15;;;;;;;6.73;4.30;;;23.50;1.00;;;;;;5093395;28;20889;-60
2023/08/19 05:53:43;;;;;;;6.47;5.00;;;23.60;99.90;;;;;;5093640;28;20460;-61
2023/08/19 05:56:10;;;;;;;5.50;4.30;;;23.60;73.70;;;;;;5094121;28;20733;-60
2023/08/19 05:58:38;;;;;;;4.33;3.80;;;23.70;99.90;;;;;;5093233;28;20942;-60
2023/08/19 06:01:06;;;;;;;5.37;4.00;;;23.80;1.00;;;;;;5091910;28;20496;-60
2023/08/19 06:03:34;;;;;;;6.63;4.83;;;23.80;1.00;;;;;;5093499;28;20954;-60
2023/08/19 06:06:05;;;;;;;7.60;4.23;;;23.90;1.00;;;;;;5093611;28;20463;-61
2023/08/19 06:08:32;;;;;;;9.20;4.53;;;24.00;99.90;;;;;;5093810;28;20465;-61
2023/08/19 06:11:02;;;;;;;4.70;4.00;;;24.10;99.90;;;;;;5092256;28;20467;-61
2023/08/19 06:13:30;;;;;;;6.50;4.63;;;24.10;99.90;;;;;;5079075;28;20500;-60
2023/08/19 06:15:57;;;;;;;5.80;4.67;;;24.20;99.90;;;;;;5079083;28;20468;-61
2023/08/19 06:18:24;;;;;;;7.90;5.47;;;24.30;99.90;;;;;;5079835;28;20511;-61
2023/08/19 06:20:52;;;;;;;11.20;4.90;;;24.30;99.90;;;;;;5079745;28;20493;-61
2023/08/19 06:23:19;;;;;;;6.63;4.20;;;24.50;1.00;;;;;;5079680;28;20552;-61
2023/08/19 06:25:48;;;;;;;7.13;4.23;;;24.70;1.00;;;;;;5078265;28;20500;-61
2023/08/19 06:28:17;;;;;;;7.63;4.37;;;24.80;99.90;;;;;;5079599;28;20472;-61
2023/08/19 06:30:45;;;;;;;6.77;3.83;;;24.90;1.00;;;;;;5079613;28;20454;-61
2023/08/19 06:33:13;;;;;;;5.13;4.40;;;24.90;1.00;;;;;;5079387;28;20879;-61
2023/08/19 06:35:40;;;;;;;5.43;4.30;;;24.90;1.00;;;;;;5078444;28;20768;-61
2023/08/19 06:38:12;;;;;;;5.60;4.23;;;24.90;99.90;;;;;;5078934;28;20462;-61
2023/08/19 06:40:49;;;;;;;7.93;4.57;;;24.90;99.90;;;;;;5079403;28;20580;-61
2023/08/19 06:43:19;;;;;;;5.33;4.43;;;24.80;99.90;;;;;;5079075;28;20467;-61
2023/08/19 06:45:47;;;;;;;5.40;4.90;;;24.80;99.90;;;;;;5078766;28;20479;-58
2023/08/19 06:48:16;;;;;;;5.97;4.30;;;24.80;99.90;;;;;;5079038;28;20548;-62
2023/08/19 06:50:44;;;;;;;6.70;4.67;;;24.80;99.90;;;;;;5077713;28;20458;-61
2023/08/19 06:53:12;;;;;;;6.40;4.83;;;24.80;99.90;;;;;;5078313;28;20457;-61
2023/08/19 06:55:42;;;;;;;4.57;3.90;;;24.80;99.90;;;;;;5079054;28;20540;-61
2023/08/19 06:58:17;;;;;;;8.37;4.40;;;24.80;99.90;;;;;;5078906;28;20457;-61
2023/08/19 07:00:47;;;;;;;7.70;3.80;;;24.90;99.90;;;;;;5077768;28;20500;-61
2023/08/19 07:03:15;;;;;;;4.27;3.90;;;25.00;99.90;;;;;;5078127;28;20559;-61
2023/08/19 07:05:43;;;;;;;8.97;4.23;;;25.00;1.00;;;;;;5078157;28;20912;-61
2023/08/19 07:08:12;;;;;;;6.97;4.53;;;25.00;99.90;;;;;;5079065;28;20467;-61
2023/08/19 07:10:40;;;;;;;4.40;4.00;;;25.10;99.90;;;;;;5078828;28;20904;-61
2023/08/19 07:13:08;;;;;;;6.43;3.80;;;25.20;1.00;;;;;;5078540;28;20866;-61
2023/08/19 07:15:36;;;;;;;7.93;4.73;;;25.30;1.00;;;;;;5077339;28;20461;-61
2023/08/19 07:18:08;;;;;;;6.40;4.03;;;25.40;1.00;;;;;;5078022;28;20526;-60
2023/08/19 07:20:36;;;;;;;6.07;4.67;;;25.50;1.00;;;;;;5078445;28;20467;-61
2023/08/19 07:23:06;;;;;;;7.30;4.27;;;25.60;1.00;;;;;;5077687;28;20492;-61
2023/08/19 07:25:34;;;;;;;5.27;4.77;;;25.50;1.00;;;;;;5076630;28;20757;-61
2023/08/19 07:28:04;;;;;;;5.00;4.50;;;25.60;1.00;;;;;;5077728;28;20472;-61
2023/08/19 07:30:32;;;;;;;7.10;5.20;;;25.60;73.00;;;;;;5078320;28;20875;-61
2023/08/19 07:33:00;;;;;;;4.90;4.40;;;25.60;18.90;;;;;;5078135;28;20754;-60
2023/08/19 07:35:28;;;;;;;8.90;4.00;;;25.70;99.90;;;;;;5077803;28;20512;-61
2023/08/19 07:37:55;;;;;;;4.30;3.77;;;25.60;99.90;;;;;;5077958;28;20555;-61
2023/08/19 07:40:23;;;;;;;7.43;4.13;;;25.60;99.90;;;;;;5077662;28;20552;-61
2023/08/19 07:42:50;;;;;;;5.40;4.23;;;25.60;1.00;;;;;;5077111;28;20457;-61
2023/08/19 07:45:17;;;;;;;7.60;4.40;;;25.60;1.00;;;;;;5061887;28;20560;-61
2023/08/19 07:47:45;;;;;;;4.30;3.77;;;25.60;1.00;;;;;;5071981;28;20832;-61
2023/08/19 07:50:12;;;;;;;10.00;4.60;;;25.60;1.00;;;;;;5077084;28;20461;-61
2023/08/19 07:52:40;;;;;;;5.57;4.33;;;25.50;1.00;;;;;;5078084;28;20453;-61
2023/08/19 07:55:08;;;;;;;7.10;4.40;;;25.50;1.00;;;;;;5077825;28;20496;-61
2023/08/19 07:57:36;;;;;;;6.40;5.10;;;25.60;1.00;;;;;;5076392;28;20981;-61
2023/08/19 08:00:03;;;;;;;6.03;4.30;;;25.60;1.00;;;;;;5075657;28;20507;-61
2023/08/19 08:02:30;;;;;;;5.40;4.27;;;25.70;1.00;;;;;;5077762;28;21020;-61
2023/08/19 08:04:58;;;;;;;8.73;5.10;;;25.70;1.00;;;;;;5077604;28;20702;-62
2023/08/19 08:07:25;;;;;;;5.53;4.80;;;25.80;1.00;;;;;;5075246;28;20468;-61
2023/08/19 08:09:54;;;;;;;5.70;5.17;;;25.80;1.00;;;;;;5076156;28;20453;-61
2023/08/19 08:12:22;;;;;;;6.93;5.07;;;25.80;1.00;;;;;;5075873;28;20457;-61
2023/08/19 08:14:49;;;;;;;5.30;4.80;;;25.80;1.00;;;;;;5075870;28;20496;-61
2023/08/19 08:17:16;;;;;;;5.33;4.13;;;25.80;1.00;;;;;;5076007;28;20829;-61
2023/08/19 08:19:44;;;;;;;6.73;4.67;;;25.90;1.00;;;;;;5075480;28;20831;-61
2023/08/19 08:22:11;;;;;;;6.53;4.67;;;25.90;99.90;;;;;;5077208;28;20603;-61
2023/08/19 08:24:38;;;;;;;5.80;4.50;;;26.00;99.90;;;;;;5077793;28;20511;-61
2023/08/19 08:27:07;;;;;;;7.43;4.70;;;26.10;1.00;;;;;;5076405;28;20481;-61
2023/08/19 08:29:34;;;;;;;5.10;4.60;;;26.20;99.90;;;;;;5076270;28;20561;-61
2023/08/19 08:32:01;;;;;;;6.47;4.60;;;26.30;1.00;;;;;;5075901;28;20550;-61
2023/08/19 08:34:30;;;;;;;6.10;5.17;;;26.50;1.00;;;;;;5076968;28;20466;-60
2023/08/19 08:36:57;;;;;;;4.83;4.50;;;26.70;1.00;;;;;;5076812;28;20881;-60
2023/08/19 08:39:24;;;;;;;5.73;4.23;;;26.80;1.00;;;;;;5077064;28;20483;-61
2023/08/19 08:41:53;;;;;;;6.10;4.83;;;27.10;99.90;;;;;;5076858;28;20587;-60
2023/08/19 08:44:23;;;;;;;4.70;4.30;;;27.30;99.90;;;;;;5073829;28;20564;-61
2023/08/19 08:46:51;;;;;;;5.07;4.57;;;27.60;99.90;;;;;;5075058;28;20461;-61
2023/08/19 08:49:19;;;;;;;6.07;4.57;;;28.10;99.90;;;;;;5075812;28;20550;-60
2023/08/19 08:51:48;;;;;;;6.93;4.90;;;28.60;99.90;;;;;;5075954;28;20823;-61
2023/08/19 08:54:16;;;;;;;5.23;4.47;;;28.90;49.00;;;;;;5076490;28;20457;-61
2023/08/19 08:56:43;;;;;;;4.77;4.37;;;29.00;1.00;;;;;;5076439;28;20457;-60
2023/08/19 08:59:11;;;;;;;5.73;5.13;;;29.00;1.00;;;;;;5074829;28;20467;-60
2023/08/19 09:01:41;;;;;;;4.60;4.20;;;29.10;1.00;;;;;;5075970;28;20508;-59
2023/08/19 09:04:11;;;;;;;6.80;4.53;;;29.20;1.00;;;;;;5076217;28;20461;-61
2023/08/19 09:06:40;;;;;;;5.47;4.97;;;29.20;1.00;;;;;;5077046;28;20500;-60
2023/08/19 09:09:11;;;;;;;6.13;5.13;;;29.30;1.00;;;;;;5076210;28;20503;-61
2023/08/19 09:11:41;;;;;;;7.60;4.93;;;29.30;1.00;;;;;;5076939;28;20457;-61
2023/08/19 09:14:15;;;;;;;4.90;4.40;;;29.20;1.00;;;;;;5076615;28;20497;-61
2023/08/19 09:16:43;;;;;;;5.47;4.97;;;29.00;1.00;;;;;;5076739;28;20511;-61
2023/08/19 09:19:11;;;;;;;7.00;4.83;;;28.90;1.00;;;;;;5076984;28;20754;-61
2023/08/19 09:21:38;;;;;;;5.10;4.60;;;28.90;1.00;;;;;;5076580;28;20489;-61
2023/08/19 09:24:06;;;;;;;8.10;6.20;;;28.90;1.00;;;;;;5075915;28;20867;-61
2023/08/19 09:26:33;;;;;;;5.40;5.00;;;28.90;1.00;;;;;;5076483;28;20559;-61
2023/08/19 09:29:00;;;;;;;5.17;4.70;;;28.90;1.00;;;;;;5076467;28;20465;-61
2023/08/19 09:31:28;;;;;;;5.77;5.27;;;28.90;1.00;;;;;;5076667;28;20528;-61
2023/08/19 09:33:56;;;;;;;5.73;5.17;;;28.90;1.00;;;;;;5076598;28;20539;-61
2023/08/19 09:36:24;;;;;;;7.27;5.03;;;29.00;1.00;;;;;;5076168;28;20508;-61
2023/08/19 09:38:55;;;;;;;5.70;5.10;;;28.90;1.00;;;;;;5076382;28;20821;-61
2023/08/19 09:41:27;;;;;;;7.03;5.53;;;29.00;1.00;;;;;;5076456;28;20861;-61
2023/08/19 09:43:55;;;;;;;6.20;5.53;;;29.10;1.00;;;;;;5076863;28;20461;-61
2023/08/19 09:46:30;;;;;;;5.77;4.13;;;29.30;1.00;;;;;;5060377;28;20478;-61
2023/08/19 09:48:59;;;;;;;6.33;5.43;;;29.30;1.00;;;;;;5065484;28;20780;-59
2023/08/19 09:51:28;;;;;;;6.00;5.50;;;29.60;1.00;;;;;;5079523;28;20801;-61
2023/08/19 09:53:56;;;;;;;7.33;5.43;;;29.70;1.00;;;;;;5080428;28;20461;-61
2023/08/19 09:56:25;;;;;;;6.00;5.20;;;29.90;1.00;;;;;;5080153;28;20461;-61
2023/08/19 09:58:56;;;;;;;5.93;5.13;;;30.00;1.00;;;;;;5079775;28;20574;-61
2023/08/19 10:01:25;;;;;;;6.33;5.63;;;30.30;1.00;;;;;;5078483;28;20836;-62
2023/08/19 10:03:53;;;;;;;8.13;5.20;;;30.50;1.00;;;;;;5076704;28;20909;-62
2023/08/19 10:06:26;;;;;;;5.90;5.17;;;30.80;1.00;;;;;;5079400;28;20469;-61
2023/08/19 10:09:00;;;;;;;7.73;4.73;;;31.10;1.00;;;;;;5080428;28;20722;-61
2023/08/19 10:11:29;;;;;;;5.97;4.90;;;31.60;1.00;;;;;;5079652;28;20496;-62
2023/08/19 10:14:01;;;;;;;7.60;5.60;;;31.80;1.00;;;;;;5078835;28;20521;-61
2023/08/19 10:16:30;;;;;;;5.57;5.00;;;31.70;99.90;;;;;;5079609;28;20467;-61
2023/08/19 10:18:59;;;;;;;6.40;5.00;;;31.60;99.90;;;;;;5079541;28;20555;-61
2023/08/19 10:21:30;;;;;;;7.27;5.50;;;31.60;99.90;;;;;;5077468;28;20493;-61
2023/08/19 10:23:59;;;;;;;6.17;5.67;;;31.60;99.90;;;;;;5078997;28;20475;-61
2023/08/19 10:26:28;;;;;;;5.90;4.93;;;31.90;99.90;;;;;;5080134;28;20564;-62
2023/08/19 10:29:05;;;;;;;6.20;5.60;;;32.30;99.90;;;;;;5079404;28;20464;-61
2023/08/19 10:31:33;;;;;;;6.80;5.93;;;32.70;99.90;;;;;;5079514;28;20514;-62
2023/08/19 10:34:10;;;;;;;5.53;4.90;;;33.10;99.90;;;;;;5078835;28;20547;-61
2023/08/19 10:36:39;;;;;;;5.63;4.93;;;33.90;99.90;;;;;;5079229;28;20885;-61
2023/08/19 10:39:16;;;;;;;6.20;5.50;;;34.40;99.90;;;;;;5078818;28;20457;-62
2023/08/19 10:41:43;;;;;;;6.20;5.70;;;34.70;99.90;;;;;;5078864;28;21023;-62
2023/08/19 10:44:13;;;;;;;6.40;5.43;;;34.90;91.20;;;;;;5079306;28;20456;-62
2023/08/19 10:46:41;;;;;;;6.30;5.80;;;34.70;41.60;;;;;;5078530;28;20511;-62
2023/08/19 10:49:13;;;;;;;6.73;6.13;;;34.00;14.90;;;;;;5078679;28;20577;-62
2023/08/19 10:51:51;;;;;;;6.73;6.23;;;33.90;1.00;;;;;;5079784;28;20469;-57
2023/08/19 10:54:43;;;;;;;6.30;5.53;;;33.50;1.00;;;;;;5079586;28;20874;-57
2023/08/19 10:57:15;;;;;;;5.57;5.07;;;33.00;1.00;;;;;;5058447;28;20475;-56
2023/08/19 10:59:44;;;;;;;7.60;6.13;;;32.80;1.00;;;;;;5078210;28;20464;-57
2023/08/19 11:02:11;;;;;;;6.43;5.00;;;32.90;1.00;;;;;;5078661;28;20579;-56
2023/08/19 11:04:42;;;;;;;6.47;5.97;;;33.00;1.00;;;;;;5078914;28;20513;-57
2023/08/19 11:07:11;;;;;;;6.30;5.70;;;33.30;1.00;;;;;;5075148;28;20468;-58
2023/08/19 11:09:42;;;;;;;6.77;6.17;;;33.20;1.00;;;;;;5076753;28;20503;-57
2023/08/19 11:12:10;;;;;;;6.37;5.70;;;32.90;1.00;;;;;;5078288;28;20463;-58
2023/08/19 11:14:38;;;;;;;7.83;6.00;;;33.00;1.00;;;;;;5077977;28;20462;-56
2023/08/19 11:17:05;;;;;;;7.37;6.67;;;33.30;1.00;;;;;;5077361;28;20464;-56
2023/08/19 11:19:33;;;;;;;6.17;5.60;;;33.80;1.00;;;;;;5077357;28;20468;-57
2023/08/19 11:22:00;;;;;;;6.30;5.70;;;34.60;1.00;;;;;;5058715;28;20528;-57
2023/08/19 11:24:34;;;;;;;6.82;5.82;;;35.10;1.00;;;;;;5063579;28;20555;-57
2023/08/19 11:27:02;;;;;;;6.05;5.53;;;35.50;1.00;;;;;;5078227;28;20255;-57
2023/08/19 11:29:30;;;;;;;6.43;5.72;;;35.70;1.00;;;;;;5078527;28;20206;-57
2023/08/19 11:32:00;;;;;;;7.68;6.45;;;35.50;1.00;;;;;;5076649;28;20199;-57
2023/08/19 11:34:29;;;;;;;6.93;6.00;;;35.00;1.00;;;;;;5076865;28;20626;-57
2023/08/19 11:36:56;;;;;;;6.88;6.28;;;34.80;1.00;;;;;;5077705;28;20233;-57
2023/08/19 11:39:24;;;;;;;7.15;6.40;;;34.10;1.00;;;;;;5077195;28;20304;-57
2023/08/19 11:42:01;;;;;;;6.40;5.90;;;33.10;1.00;;;;;;5076241;28;20617;-56
2023/08/19 11:44:28;;;;;;;7.33;6.63;;;32.60;1.00;;;;;;5077258;28;20995;-58
2023/08/19 11:46:57;;;;;;;7.10;6.20;;;32.50;1.00;;;;;;5077465;28;20463;-56
2023/08/19 11:49:29;;;;;;;7.80;7.10;;;32.10;1.00;;;;;;5077431;28;20460;-58
2023/08/19 11:51:58;;;;;;;7.63;6.93;;;32.40;1.00;;;;;;5075892;28;21005;-56
2023/08/19 11:54:25;;;;;;;7.60;6.80;;;32.50;1.00;;;;;;5077343;28;20460;-58
2023/08/19 11:56:59;;;;;;;7.67;7.00;;;32.40;1.00;;;;;;5076224;28;20467;-57
2023/08/19 11:59:30;;;;;;;8.20;7.40;;;32.20;1.00;;;;;;5077349;28;20461;-60
2023/08/19 12:01:58;;;;;;;8.53;7.73;;;31.80;1.00;;;;;;5077573;28;20489;-57
2023/08/19 12:04:25;;;;;;;8.60;7.80;;;31.20;1.00;;;;;;5077709;28;20502;-57
2023/08/19 12:06:53;;;;;;;9.00;6.97;;;31.20;1.00;;;;;;5076247;28;20551;-56
2023/08/19 12:09:31;;;;;;;9.10;8.20;;;31.20;1.00;;;;;;5077056;28;20457;-56
2023/08/19 12:12:08;;;;;;;8.70;7.50;;;31.00;1.00;;;;;;5077088;28;20560;-57
2023/08/19 12:14:37;;;;;;;10.10;8.50;;;30.40;1.00;;;;;;5077658;28;20457;-56
2023/08/19 12:17:06;;;;;;;9.10;7.27;;;30.50;68.80;;;;;;5076628;28;20475;-57
2023/08/19 12:19:34;;;;;;;9.50;8.70;;;30.70;99.90;;;;;;5077233;28;20561;-57
2023/08/19 12:22:01;;;;;;;9.80;8.40;;;30.30;72.30;;;;;;5077342;28;20457;-56
2023/08/19 12:24:28;;;;;;;12.50;10.87;;;30.20;99.90;;;;;;5077161;28;20465;-57
2023/08/19 12:26:57;;;;;;;37.43;34.10;;;30.50;99.90;;;;;;5077100;28;20556;-57
2023/08/19 12:29:25;;;;;;;10.27;9.37;;;30.20;99.90;;;;;;5076184;28;20548;-57
2023/08/19 12:31:53;;;;;;;9.00;7.93;;;30.10;99.90;;;;;;5077287;28;20815;-61
2023/08/19 12:34:20;;;;;;;9.33;8.43;;;30.00;99.90;;;;;;5077316;28;20559;-61
2023/08/19 12:36:47;;;;;;;10.13;9.43;;;30.00;99.90;;;;;;5077694;28;20552;-61
2023/08/19 12:39:15;;;;;;;11.30;8.87;;;30.00;99.90;;;;;;5076821;28;20556;-60
2023/08/19 12:41:44;;;;;;;11.00;10.00;;;30.00;99.90;;;;;;5076995;28;20460;-62
2023/08/19 12:44:11;;;;;;;10.10;9.10;;;29.90;99.90;;;;;;5077248;28;20882;-61
2023/08/19 12:46:44;;;;;;;11.10;10.20;;;29.60;99.90;;;;;;5076552;28;20453;-61
2023/08/19 12:49:12;;;;;;;13.00;10.97;;;29.60;1.00;;;;;;5076985;28;20556;-61
2023/08/19 12:51:40;;;;;;;10.33;9.10;;;29.60;1.00;;;;;;5073867;28;20453;-61
2023/08/19 12:54:09;;;;;;;10.90;10.00;;;29.90;1.00;;;;;;5057050;28;20511;-61
2023/08/19 12:56:36;;;;;;;10.13;9.33;;;30.70;1.00;;;;;;5057291;28;20561;-63